Time;durP1;ratioP1;P1;durP2;ratioP2;P2;SDS_P1;SDS_P2;PMS_P1;PMS_P2;Temp;Humidity;BMP_temperature;BMP_pressure;BME280_temperature;BME280_humidity;BME280_pressure;Samples;Min_cycle;Max_cycle;Signal;HPM_P1;HPM_P2
2021/03/30 00:00:18;;;;;;;11.35;6.43;;;;;;;6.08;94.16;97527.13;1036490;28;20018;-56
2021/03/30 00:00:48;;;;;;;9.45;6.18;;;;;;;6.08;94.45;97531.56;1040600;28;20096;-58
2021/03/30 00:01:19;;;;;;;14.82;6.65;;;;;;;6.04;93.84;97521.25;1036588;28;20041;-56
2021/03/30 00:01:50;;;;;;;12.35;6.93;;;;;;;6.04;93.70;97521.25;1036400;28;20010;-58
2021/03/30 00:02:21;;;;;;;10.05;6.35;;;;;;;6.06;94.07;97523.78;1036607;28;20488;-59
2021/03/30 00:02:52;;;;;;;11.73;5.90;;;;;;;6.05;93.76;97524.72;1040591;28;20041;-57
2021/03/30 00:03:22;;;;;;;12.25;6.30;;;;;;;6.02;93.89;97517.00;1032315;28;20022;-58
2021/03/30 00:03:53;;;;;;;12.18;6.40;;;;;;;6.06;93.62;97529.06;1040505;28;20022;-57
2021/03/30 00:04:24;;;;;;;11.38;5.88;;;;;;;6.06;93.33;97528.19;1036519;28;20032;-57
2021/03/30 00:04:55;;;;;;;10.98;5.80;;;;;;;6.03;93.60;97518.72;1044688;28;20021;-57
2021/03/30 00:05:26;;;;;;;8.85;6.32;;;;;;;6.05;92.93;97527.34;1032466;28;20441;-58
2021/03/30 00:05:57;;;;;;;10.45;6.38;;;;;;;6.06;93.09;97529.06;1036635;28;20514;-57
2021/03/30 00:06:27;;;;;;;11.38;6.07;;;;;;;6.06;93.37;97525.53;1032234;28;20021;-55
2021/03/30 00:06:58;;;;;;;11.23;6.28;;;;;;;6.02;92.94;97522.28;1036571;28;20030;-57
2021/03/30 00:07:29;;;;;;;14.55;6.25;;;;;;;6.04;93.16;97523.88;1036510;28;20025;-59
2021/03/30 00:07:59;;;;;;;10.25;6.28;;;;;;;6.07;92.63;97525.44;1036508;28;20018;-58
2021/03/30 00:08:30;;;;;;;10.77;6.15;;;;;;;6.05;92.89;97524.72;1036396;28;20044;-56
2021/03/30 00:09:01;;;;;;;11.90;6.70;;;;;;;6.04;92.89;97520.38;1040679;28;20017;-57
2021/03/30 00:09:32;;;;;;;11.73;6.32;;;;;;;6.02;93.13;97522.28;1040594;28;20017;-58
2021/03/30 00:10:05;;;;;;;12.60;6.32;;;;;;;6.02;93.26;97524.94;1040580;28;20025;-57
2021/03/30 00:10:37;;;;;;;11.95;6.57;;;;;;;6.01;93.86;97528.53;1036377;28;20014;-56
2021/03/30 00:11:08;;;;;;;11.50;6.32;;;;;;;5.92;93.16;97511.53;1032588;28;20069;-58
2021/03/30 00:11:39;;;;;;;12.05;6.38;;;;;;;6.01;92.98;97524.09;1032387;28;20109;-56
2021/03/30 00:12:09;;;;;;;10.65;6.93;;;;;;;5.99;92.63;97523.34;1036478;28;20112;-57
2021/03/30 00:12:40;;;;;;;9.90;6.07;;;;;;;6.00;93.05;97524.19;1036309;28;20487;-55
2021/03/30 00:13:11;;;;;;;10.77;6.65;;;;;;;5.97;92.30;97519.13;1040810;28;20017;-58
2021/03/30 00:13:41;;;;;;;13.60;5.88;;;;;;;5.99;92.17;97523.34;1036386;28;20041;-57
2021/03/30 00:14:12;;;;;;;12.10;6.15;;;;;;;5.98;92.54;97528.75;1036499;28;20026;-56
2021/03/30 00:14:43;;;;;;;12.13;6.22;;;;;;;5.98;92.31;97523.47;1040606;28;20023;-57
2021/03/30 00:15:14;;;;;;;11.60;6.20;;;;;;;5.98;92.60;97524.31;1040499;28;20442;-58
2021/03/30 00:15:45;;;;;;;11.60;6.43;;;;;;;5.99;92.00;97527.78;1040553;28;20072;-57
2021/03/30 00:16:15;;;;;;;9.95;5.70;;;;;;;5.99;92.06;97526.00;1032442;28;20022;-57
2021/03/30 00:16:46;;;;;;;9.88;5.97;;;;;;;6.00;91.38;97525.03;1036587;28;20113;-57
2021/03/30 00:17:17;;;;;;;10.77;5.82;;;;;;;5.99;91.84;97531.28;1036486;28;20026;-56
2021/03/30 00:17:47;;;;;;;11.57;5.97;;;;;;;5.98;91.38;97526.94;1036456;28;20116;-58
2021/03/30 00:18:18;;;;;;;11.60;6.10;;;;;;;5.99;91.34;97530.41;1032492;28;20479;-56
2021/03/30 00:18:49;;;;;;;9.35;6.07;;;;;;;5.91;91.98;97511.63;1040452;28;20029;-55
2021/03/30 00:19:19;;;;;;;12.32;6.45;;;;;;;5.97;91.84;97522.59;1044819;28;20525;-58
2021/03/30 00:19:50;;;;;;;10.90;5.85;;;;;;;5.97;91.79;97522.59;1032370;28;20018;-56
2021/03/30 00:20:21;;;;;;;11.75;6.32;;;;;;;5.96;91.66;97517.47;1040510;28;20395;-56
2021/03/30 00:20:52;;;;;;;11.25;6.53;;;;;;;5.97;91.93;97524.41;1036348;28;20045;-58
2021/03/30 00:21:22;;;;;;;14.38;6.85;;;;;;;5.96;92.08;97517.47;1036468;28;20069;-59
2021/03/30 00:21:53;;;;;;;11.07;6.32;;;;;;;5.95;91.45;97518.38;1040676;28;20246;-57
2021/03/30 00:22:24;;;;;;;13.65;6.70;;;;;;;5.94;91.68;97524.56;1040622;28;20017;-58
2021/03/30 00:22:54;;;;;;;11.20;6.60;;;;;;;5.92;91.66;97519.44;1036212;28;20026;-58
2021/03/30 00:23:25;;;;;;;10.65;5.88;;;;;;;5.92;91.48;97522.06;1044675;28;20016;-57
2021/03/30 00:23:56;;;;;;;13.00;6.03;;;;;;;5.88;91.73;97517.94;1048602;28;20095;-57
2021/03/30 00:24:27;;;;;;;8.90;5.72;;;;;;;5.91;91.43;97523.00;1040633;28;20083;-56
2021/03/30 00:24:57;;;;;;;13.18;6.03;;;;;;;5.91;91.57;97522.19;1040375;28;20014;-56
2021/03/30 00:25:28;;;;;;;10.55;5.68;;;;;;;5.88;91.61;97517.13;1032408;28;20034;-56
2021/03/30 00:25:59;;;;;;;12.32;6.13;;;;;;;5.78;92.40;97511.63;1044577;28;20017;-57
2021/03/30 00:26:34;;;;;;;12.02;6.30;;;;;;;5.80;93.39;97512.38;1036489;28;20104;-55
2021/03/30 00:27:06;;;;;;;12.88;6.25;;;;;;;5.82;92.80;97513.13;1036342;28;20083;-57
2021/03/30 00:27:37;;;;;;;14.07;6.28;;;;;;;5.80;92.86;97518.50;1036585;28;20041;-57
2021/03/30 00:28:08;;;;;;;10.77;6.32;;;;;;;5.80;93.22;97515.88;1036412;28;20442;-58
2021/03/30 00:28:38;;;;;;;8.70;5.85;;;;;;;5.58;92.49;97476.97;1036371;28;20070;-55
2021/03/30 00:29:09;;;;;;;13.30;6.28;;;;;;;5.79;92.38;97521.25;1032193;28;20473;-57
2021/03/30 00:29:47;;;;;;;11.13;5.82;;;;;;;5.79;92.90;97516.81;1032311;28;20014;-58
2021/03/30 00:30:18;;;;;;;9.05;5.55;;;;;;;5.77;91.98;97512.59;1032302;28;20018;-54
2021/03/30 00:30:49;;;;;;;16.55;6.70;;;;;;;5.77;92.33;97517.88;1032323;28;20023;-58
2021/03/30 00:31:20;;;;;;;9.68;5.80;;;;;;;5.75;92.18;97517.97;1040419;28;20025;-58
2021/03/30 00:31:51;;;;;;;9.95;5.63;;;;;;;5.76;92.80;97513.53;1036496;28;20425;-58
2021/03/30 00:32:21;;;;;;;13.07;6.28;;;;;;;5.74;92.61;97516.28;1032287;28;20018;-58
2021/03/30 00:32:52;;;;;;;11.95;6.30;;;;;;;5.74;93.20;97521.56;1040593;28;20381;-58
2021/03/30 00:33:23;;;;;;;10.77;6.03;;;;;;;5.73;93.57;97516.38;1036296;28;20064;-57
2021/03/30 00:33:54;;;;;;;13.85;6.60;;;;;;;5.71;93.95;97521.75;1036442;28;20660;-56
2021/03/30 00:34:24;;;;;;;12.05;6.60;;;;;;;5.72;94.63;97517.34;1036298;28;20022;-58
2021/03/30 00:34:55;;;;;;;11.73;6.85;;;;;;;5.68;94.47;97514.09;1036357;28;20026;-57
2021/03/30 00:35:26;;;;;;;9.65;5.82;;;;;;;5.68;94.87;97516.72;1036263;28;20129;-56
2021/03/30 00:35:56;;;;;;;12.23;6.78;;;;;;;5.68;94.42;97516.72;1040449;28;20502;-58
2021/03/30 00:36:27;;;;;;;9.35;5.80;;;;;;;5.65;95.11;97509.84;1032371;28;20113;-57
2021/03/30 00:36:58;;;;;;;10.90;5.70;;;;;;;5.67;94.36;97509.75;1040447;28;20013;-57
2021/03/30 00:37:28;;;;;;;11.32;6.20;;;;;;;5.66;94.16;97510.72;1036222;28;20024;-58
2021/03/30 00:37:59;;;;;;;12.93;6.15;;;;;;;5.64;93.30;97509.94;1044615;28;20024;-56
2021/03/30 00:38:30;;;;;;;13.30;6.60;;;;;;;5.61;93.31;97504.91;1044677;28;20021;-57
2021/03/30 00:39:01;;;;;;;10.20;6.03;;;;;;;5.62;92.94;97512.69;1036415;28;20013;-58
2021/03/30 00:39:31;;;;;;;10.70;7.07;;;;;;;5.60;92.92;97513.75;1036243;28;20496;-57
2021/03/30 00:40:04;;;;;;;11.90;5.82;;;;;;;5.58;93.27;97500.69;1032290;28;20522;-57
2021/03/30 00:40:36;;;;;;;10.27;6.22;;;;;;;5.60;93.22;97508.50;1032292;28;20018;-56
2021/03/30 00:41:07;;;;;;;12.45;5.72;;;;;;;5.59;93.01;97510.28;1036929;28;20022;-56
2021/03/30 00:41:40;;;;;;;10.27;5.63;;;;;;;5.58;92.51;97510.41;1036281;28;20018;-56
2021/03/30 00:42:16;;;;;;;11.52;5.90;;;;;;;5.57;92.41;97508.69;1040432;28;20022;-58
2021/03/30 00:42:47;;;;;;;13.55;6.35;;;;;;;5.55;92.57;97506.16;1040364;28;20088;-57
2021/03/30 00:43:18;;;;;;;13.15;5.90;;;;;;;5.55;92.74;97507.97;1044460;28;20021;-57
2021/03/30 00:43:49;;;;;;;10.02;6.43;;;;;;;5.54;92.16;97501.00;1041465;28;20048;-58
2021/03/30 00:44:20;;;;;;;10.65;5.43;;;;;;;5.52;92.65;97513.44;1036352;28;20018;-57
2021/03/30 00:44:51;;;;;;;10.30;5.90;;;;;;;5.51;92.27;97506.50;1036276;28;20010;-58
2021/03/30 00:45:23;;;;;;;11.77;6.05;;;;;;;5.50;92.99;97507.44;1032346;28;20102;-57
2021/03/30 00:45:53;;;;;;;9.00;5.47;;;;;;;5.48;92.53;97505.75;1036229;28;20046;-58
2021/03/30 00:46:24;;;;;;;11.38;6.40;;;;;;;5.43;92.99;97499.09;1036365;28;20016;-57
2021/03/30 00:46:55;;;;;;;10.75;5.85;;;;;;;5.47;93.25;97508.50;1032355;28;20018;-57
2021/03/30 00:47:27;;;;;;;10.20;5.38;;;;;;;5.46;92.92;97507.63;1036319;28;20076;-57
2021/03/30 00:47:58;;;;;;;11.82;6.55;;;;;;;5.48;93.24;97503.09;1040436;28;20391;-57
2021/03/30 00:48:28;;;;;;;11.63;6.28;;;;;;;5.45;93.32;97502.47;1036412;28;20010;-56
2021/03/30 00:48:59;;;;;;;15.52;6.47;;;;;;;5.50;93.57;97513.53;1032316;28;20555;-58
2021/03/30 00:49:32;;;;;;;8.52;5.38;;;;;;;5.48;93.05;97511.00;1036369;28;20097;-58
2021/03/30 00:50:03;;;;;;;11.88;5.65;;;;;;;5.40;93.11;97494.91;1036196;28;20020;-57
2021/03/30 00:50:33;;;;;;;10.95;5.60;;;;;;;5.47;93.53;97511.97;1036334;28;20483;-57
2021/03/30 00:51:04;;;;;;;10.38;5.38;;;;;;;5.46;93.05;97515.53;1040379;28;20017;-57
2021/03/30 00:51:35;;;;;;;11.93;5.85;;;;;;;5.44;93.12;97512.19;1040499;28;20033;-57
2021/03/30 00:52:06;;;;;;;10.40;5.72;;;;;;;5.44;93.48;97512.19;1040393;28;20048;-57
2021/03/30 00:52:37;;;;;;;13.52;6.43;;;;;;;5.43;93.12;97513.16;1044459;28;20017;-58
2021/03/30 00:53:08;;;;;;;11.35;5.30;;;;;;;5.43;93.19;97507.00;1040489;28;20020;-57
2021/03/30 00:53:39;;;;;;;8.80;5.78;;;;;;;5.40;93.56;97508.06;1036090;28;20514;-57
2021/03/30 00:54:10;;;;;;;11.02;5.05;;;;;;;5.40;93.43;97507.22;1036524;28;20014;-57
2021/03/30 00:54:40;;;;;;;9.35;4.95;;;;;;;5.40;93.45;97510.72;1040549;28;20101;-57
2021/03/30 00:55:12;;;;;;;9.73;5.72;;;;;;;5.38;93.47;97515.25;1036287;28;20014;-58
2021/03/30 00:55:42;;;;;;;12.35;6.20;;;;;;;5.36;93.16;97506.59;1036356;28;20018;-56
2021/03/30 00:56:13;;;;;;;9.27;5.63;;;;;;;5.35;93.62;97510.19;1044450;28;20513;-56
2021/03/30 00:56:43;;;;;;;8.85;5.18;;;;;;;5.32;93.90;97505.13;1032220;28;20026;-57
2021/03/30 00:57:15;;;;;;;19.52;5.88;;;;;;;5.25;94.04;97512.59;1036325;28;20116;-57
2021/03/30 00:57:46;;;;;;;9.70;5.53;;;;;;;5.26;94.03;97516.91;1036330;28;20018;-57
2021/03/30 00:58:16;;;;;;;14.35;5.53;;;;;;;5.25;94.05;97514.38;1036107;28;20021;-57
2021/03/30 00:58:47;;;;;;;10.20;5.22;;;;;;;5.23;94.78;97511.84;1036324;28;20021;-57
2021/03/30 00:59:18;;;;;;;12.43;5.72;;;;;;;5.23;94.48;97519.75;1032530;28;20101;-57
2021/03/30 00:59:49;;;;;;;9.63;5.15;;;;;;;5.22;94.52;97518.06;1040377;28;20112;-57
2021/03/30 01:00:21;;;;;;;9.75;5.20;;;;;;;5.22;94.76;97517.22;1036051;28;20022;-56
2021/03/30 01:00:52;;;;;;;8.85;5.45;;;;;;;5.21;94.36;97512.91;1032247;28;20495;-58
2021/03/30 01:01:22;;;;;;;10.50;5.05;;;;;;;5.20;94.88;97516.47;1036302;28;20025;-56
2021/03/30 01:01:53;;;;;;;12.05;5.57;;;;;;;5.20;95.01;97513.84;1036330;28;20468;-56
2021/03/30 01:02:24;;;;;;;8.48;5.47;;;;;;;5.18;94.49;97513.13;1044362;28;20072;-57
2021/03/30 01:02:54;;;;;;;9.48;5.50;;;;;;;5.14;94.62;97512.47;1036218;28;20455;-56
2021/03/30 01:03:25;;;;;;;8.63;5.00;;;;;;;5.10;95.26;97503.94;1032141;28;20095;-57
2021/03/30 01:03:55;;;;;;;12.90;5.47;;;;;;;5.15;94.84;97519.41;1036023;28;20561;-58
2021/03/30 01:04:26;;;;;;;10.35;5.43;;;;;;;5.11;95.92;97512.69;1040205;28;20017;-57
2021/03/30 01:04:57;;;;;;;11.63;5.55;;;;;;;5.11;95.54;97517.94;1032183;28;20018;-56
2021/03/30 01:05:28;;;;;;;9.63;5.38;;;;;;;5.08;96.23;97518.97;1040431;28;20017;-58
2021/03/30 01:05:58;;;;;;;13.80;5.40;;;;;;;5.07;96.85;97517.31;1036318;28;20072;-57
2021/03/30 01:06:29;;;;;;;10.77;5.60;;;;;;;5.06;97.07;97512.16;1044406;28;20103;-57
2021/03/30 01:07:00;;;;;;;11.68;5.35;;;;;;;5.05;97.43;97518.34;1036216;28;20116;-58
2021/03/30 01:07:31;;;;;;;15.18;5.95;;;;;;;5.04;97.77;97517.50;1036387;28;20021;-57
2021/03/30 01:08:14;;;;;;;8.82;5.55;;;;;;;5.04;97.54;97514.03;1040320;28;20040;-59
2021/03/30 01:08:49;;;;;;;8.18;4.78;;;;;;;5.02;98.28;97521.19;1036149;28;20505;-58
2021/03/30 01:09:39;;;;;;;9.75;4.95;;;;;;;5.02;97.67;97518.56;1042782;28;20083;-59
2021/03/30 01:10:27;;;;;;;9.90;5.25;;;;;;;5.00;97.88;97520.44;1040303;28;20045;-59
2021/03/30 01:11:05;;;;;;;10.95;4.97;;;;;;;4.98;97.54;97517.06;1037077;28;20116;-57
2021/03/30 01:11:43;;;;;;;9.57;4.97;;;;;;;4.97;97.75;97521.50;1036262;28;20596;-57
2021/03/30 01:12:33;;;;;;;13.18;5.68;;;;;;;4.94;97.57;97516.44;1040386;28;20027;-57
2021/03/30 01:13:14;;;;;;;8.40;4.97;;;;;;;4.93;97.78;97522.66;1040184;28;20048;-58
2021/03/30 01:13:52;;;;;;;11.70;4.60;;;;;;;4.93;97.26;97519.16;1036184;28;20014;-57
2021/03/30 01:14:33;;;;;;;10.30;5.00;;;;;;;4.89;98.05;97513.25;1040497;28;20037;-56
2021/03/30 01:15:12;;;;;;;10.90;5.55;;;;;;;4.89;98.31;97513.25;1039989;28;20029;-56
2021/03/30 01:15:50;;;;;;;12.13;5.78;;;;;;;4.89;97.93;97518.53;1039980;28;20495;-57
2021/03/30 01:16:31;;;;;;;9.13;5.43;;;;;;;4.86;98.20;97514.31;1036352;28;20101;-57
2021/03/30 01:17:10;;;;;;;12.93;5.47;;;;;;;4.87;98.13;97520.41;1040224;28;20386;-57
2021/03/30 01:17:43;;;;;;;11.82;5.32;;;;;;;4.86;98.03;97516.09;1040298;28;20545;-58
2021/03/30 01:18:17;;;;;;;9.00;5.18;;;;;;;4.82;98.10;97512.81;1040289;28;20048;-57
2021/03/30 01:18:58;;;;;;;8.73;5.22;;;;;;;4.84;97.70;97517.97;1038336;28;20021;-59
2021/03/30 01:19:49;;;;;;;13.68;5.20;;;;;;;4.84;98.07;97523.25;1036902;28;20057;-56
2021/03/30 01:20:39;;;;;;;9.82;5.03;;;;;;;4.85;97.32;97515.25;1036245;28;20014;-57
2021/03/30 01:21:20;;;;;;;10.23;5.30;;;;;;;4.84;97.00;97520.59;1041664;28;20021;-57
2021/03/30 01:22:03;;;;;;;7.47;4.80;;;;;;;4.79;97.61;97506.91;1040591;28;20017;-56
2021/03/30 01:22:55;;;;;;;10.05;5.32;;;;;;;4.82;97.98;97517.25;1040423;28;20194;-56
2021/03/30 01:23:47;;;;;;;14.13;5.50;;;;;;;4.83;98.22;97524.22;1044862;28;20032;-56
2021/03/30 01:24:30;;;;;;;7.47;4.80;;;;;;;4.73;98.33;97510.78;1040331;28;20018;-57
2021/03/30 01:25:01;;;;;;;11.13;4.70;;;;;;;4.79;98.40;97514.81;1032140;28;20022;-59
2021/03/30 01:25:34;;;;;;;9.07;4.82;;;;;;;4.77;98.49;97512.28;1036183;28;20033;-57
2021/03/30 01:26:16;;;;;;;10.43;4.97;;;;;;;4.76;98.80;97515.03;1036251;28;20018;-58
2021/03/30 01:26:58;;;;;;;9.45;5.05;;;;;;;4.76;98.15;97515.03;1036299;28;20014;-56
2021/03/30 01:27:47;;;;;;;13.15;4.70;;;;;;;4.75;98.74;97513.31;1035599;28;20507;-56
2021/03/30 01:28:30;;;;;;;7.97;4.93;;;;;;;4.75;99.00;97510.69;1036321;28;20097;-57
2021/03/30 01:29:09;;;;;;;10.93;4.82;;;;;;;4.74;98.54;97520.41;1036695;28;20022;-57
2021/03/30 01:29:50;;;;;;;6.82;4.53;;;;;;;4.75;98.71;97515.97;1036366;28;20024;-56
2021/03/30 01:30:21;;;;;;;9.80;5.13;;;;;;;4.73;98.71;97509.00;1035882;28;20483;-56
2021/03/30 01:30:51;;;;;;;8.63;4.82;;;;;;;4.75;98.69;97515.97;1036092;28;20030;-57
2021/03/30 01:31:22;;;;;;;11.63;5.63;;;;;;;4.79;97.91;97512.16;1036226;28;20030;-57
2021/03/30 01:31:56;;;;;;;8.40;4.55;;;;;;;4.79;97.54;97513.03;1032101;28;20444;-57
2021/03/30 01:32:38;;;;;;;8.23;4.63;;;;;;;4.81;97.95;97510.31;1032101;28;20019;-57
2021/03/30 01:33:11;;;;;;;7.55;4.95;;;;;;;4.79;98.54;97509.53;1036198;28;20022;-57
2021/03/30 01:33:41;;;;;;;8.75;4.93;;;;;;;4.78;98.47;97513.97;1044271;28;20529;-56
2021/03/30 01:34:13;;;;;;;11.40;5.72;;;;;;;4.75;99.42;97508.91;1032171;28;20025;-56
2021/03/30 01:34:46;;;;;;;7.63;5.15;;;;;;;4.75;99.39;97508.06;1040193;28;20018;-55
2021/03/30 01:35:19;;;;;;;12.75;5.00;;;;;;;4.76;99.63;97512.41;1036150;28;20323;-57
2021/03/30 01:35:52;;;;;;;8.95;4.57;;;;;;;4.69;99.62;97498.78;1032163;28;20023;-59
2021/03/30 01:36:23;;;;;;;8.57;5.18;;;;;;;4.75;99.65;97500.19;1032143;28;20053;-59
2021/03/30 01:36:54;;;;;;;10.55;5.47;;;;;;;4.75;99.32;97506.28;1036034;28;20014;-58
2021/03/30 01:37:25;;;;;;;9.18;4.97;;;;;;;4.74;99.19;97512.50;1044414;28;20540;-58
2021/03/30 01:37:56;;;;;;;7.68;4.82;;;;;;;4.72;99.24;97509.97;1044405;28;20075;-57
2021/03/30 01:38:27;;;;;;;12.82;5.30;;;;;;;4.72;99.50;97512.59;1044378;28;20087;-59
2021/03/30 01:38:58;;;;;;;9.20;5.40;;;;;;;4.71;99.62;97507.44;1036091;28;20033;-57
2021/03/30 01:39:28;;;;;;;7.93;4.60;;;;;;;4.69;99.44;97504.88;1040245;28;20104;-57
2021/03/30 01:39:59;;;;;;;9.45;5.53;;;;;;;4.69;99.47;97498.78;1032008;28;20447;-58
2021/03/30 01:40:31;;;;;;;10.10;4.90;;;;;;;4.67;99.66;97501.53;1040222;28;20031;-56
2021/03/30 01:41:02;;;;;;;12.75;5.28;;;;;;;4.67;99.40;97500.69;1035983;28;20045;-57
2021/03/30 01:41:33;;;;;;;8.90;4.95;;;;;;;4.64;99.74;97509.63;1036166;28;20025;-58
2021/03/30 01:42:04;;;;;;;13.52;5.57;;;;;;;4.63;99.81;97501.81;1036293;28;20050;-57
2021/03/30 01:42:35;;;;;;;9.18;5.22;;;;;;;4.63;99.96;97502.69;1036131;28;20029;-56
2021/03/30 01:43:06;;;;;;;12.27;5.32;;;;;;;4.63;99.95;97501.81;1040135;28;20101;-58
2021/03/30 01:43:37;;;;;;;11.98;5.15;;;;;;;4.56;100.00;97492.63;1040078;28;20017;-57
2021/03/30 01:44:07;;;;;;;9.57;5.00;;;;;;;4.58;100.00;97496.00;1032032;28;20512;-58
2021/03/30 01:44:40;;;;;;;8.02;5.07;;;;;;;4.60;100.00;97504.63;1032035;28;20029;-56
2021/03/30 01:45:10;;;;;;;11.02;5.28;;;;;;;4.59;100.00;97498.53;1036004;28;20519;-57
2021/03/30 01:45:41;;;;;;;9.13;4.57;;;;;;;4.58;100.00;97506.53;1032151;28;20026;-58
2021/03/30 01:46:13;;;;;;;9.50;5.50;;;;;;;4.59;100.00;97505.59;1036142;28;20072;-58
2021/03/30 01:46:44;;;;;;;12.02;5.22;;;;;;;4.57;100.00;97502.22;1044305;28;20526;-57
2021/03/30 01:47:14;;;;;;;8.88;4.70;;;;;;;4.53;100.00;97496.31;1040172;28;20025;-56
2021/03/30 01:47:45;;;;;;;9.05;5.40;;;;;;;4.46;100.00;97489.75;1040158;28;20025;-58
2021/03/30 01:48:16;;;;;;;10.65;5.45;;;;;;;4.55;100.00;97502.31;1036143;28;20021;-56
2021/03/30 01:48:47;;;;;;;12.73;5.57;;;;;;;4.55;100.00;97506.75;1036142;28;20024;-57
2021/03/30 01:49:19;;;;;;;8.93;5.22;;;;;;;4.53;100.00;97505.06;1048311;28;20032;-59
2021/03/30 01:49:49;;;;;;;11.07;5.40;;;;;;;4.49;100.00;97500.94;1040151;28;20017;-58
2021/03/30 01:50:20;;;;;;;10.48;5.57;;;;;;;4.48;100.00;97495.78;1036070;28;20021;-57
2021/03/30 01:50:52;;;;;;;10.88;5.22;;;;;;;4.48;100.00;97504.50;1040259;28;20029;-57
2021/03/30 01:51:23;;;;;;;10.05;5.63;;;;;;;4.45;100.00;97504.69;1035912;28;20117;-58
2021/03/30 01:51:55;;;;;;;7.00;4.88;;;;;;;4.44;100.00;97499.53;1036217;28;20033;-58
2021/03/30 01:52:25;;;;;;;11.95;5.38;;;;;;;4.44;100.00;97499.53;1040142;28;20121;-56
2021/03/30 01:52:56;;;;;;;11.65;5.38;;;;;;;4.43;100.00;97503.13;1044380;28;20023;-56
2021/03/30 01:53:27;;;;;;;10.57;5.45;;;;;;;4.42;100.00;97498.78;1035880;28;20014;-56
2021/03/30 01:53:58;;;;;;;10.35;5.18;;;;;;;4.42;100.00;97496.16;1048337;28;20016;-58
2021/03/30 01:54:29;;;;;;;9.27;4.90;;;;;;;4.41;100.00;97494.50;1036113;28;20041;-57
2021/03/30 01:54:59;;;;;;;9.75;5.57;;;;;;;4.40;100.00;97500.69;1032022;28;20018;-57
2021/03/30 01:55:30;;;;;;;12.63;4.50;;;;;;;4.38;100.00;97499.94;1035919;28;20025;-57
2021/03/30 01:56:01;;;;;;;11.88;5.50;;;;;;;4.36;100.00;97502.66;1036019;28;20010;-57
2021/03/30 01:56:31;;;;;;;11.05;4.90;;;;;;;4.35;100.00;97503.59;1036041;28;20514;-57
2021/03/30 01:57:03;;;;;;;8.98;5.55;;;;;;;4.36;100.00;97500.03;1032009;28;20077;-59
2021/03/30 01:57:33;;;;;;;10.45;5.20;;;;;;;4.37;100.00;97500.88;1035941;28;20014;-56
2021/03/30 01:58:04;;;;;;;11.60;6.00;;;;;;;4.34;100.00;97499.31;1035924;28;20049;-57
2021/03/30 01:58:35;;;;;;;9.45;5.93;;;;;;;4.34;100.00;97500.13;1036124;28;20037;-57
2021/03/30 01:59:06;;;;;;;9.43;5.25;;;;;;;4.30;100.00;97496.03;1036068;28;20017;-58
2021/03/30 01:59:39;;;;;;;9.63;5.60;;;;;;;4.33;100.00;97497.59;1040052;28;20013;-55
2021/03/30 02:00:10;;;;;;;8.68;5.65;;;;;;;4.31;100.00;97497.69;1040243;28;20010;-57
2021/03/30 02:00:41;;;;;;;8.95;5.00;;;;;;;4.30;100.00;97495.16;1031942;28;20137;-57
2021/03/30 02:01:13;;;;;;;13.63;5.75;;;;;;;4.30;100.00;97496.03;1032002;28;20146;-57
2021/03/30 02:01:45;;;;;;;13.77;5.45;;;;;;;4.30;100.00;97501.28;1032026;28;20025;-58
2021/03/30 02:02:15;;;;;;;9.93;5.63;;;;;;;4.31;100.00;97496.84;1032575;28;20502;-56
2021/03/30 02:02:46;;;;;;;13.27;5.72;;;;;;;4.30;100.00;97501.28;1032044;28;20015;-58
2021/03/30 02:03:17;;;;;;;14.30;5.55;;;;;;;4.32;100.00;97498.56;1031977;28;20109;-57
2021/03/30 02:03:48;;;;;;;12.15;5.28;;;;;;;4.33;100.00;97503.69;1031774;28;20332;-58
2021/03/30 02:04:19;;;;;;;9.88;5.10;;;;;;;4.32;100.00;97498.56;1036002;28;20088;-57
2021/03/30 02:04:49;;;;;;;7.97;4.95;;;;;;;4.33;100.00;97494.97;1036148;28;20574;-56
2021/03/30 02:05:20;;;;;;;11.80;6.75;;;;;;;4.32;100.00;97499.41;1036084;28;20021;-58
2021/03/30 02:05:52;;;;;;;9.85;5.70;;;;;;;4.31;100.00;97492.44;1035911;28;20018;-56
2021/03/30 02:06:22;;;;;;;11.65;5.30;;;;;;;4.32;100.00;97491.50;1036048;28;20014;-56
2021/03/30 02:06:53;;;;;;;12.35;5.35;;;;;;;4.33;100.00;97494.97;1036059;28;20018;-57
2021/03/30 02:07:24;;;;;;;8.55;4.90;;;;;;;4.35;100.00;97498.34;1032069;28;20437;-55
2021/03/30 02:07:58;;;;;;;8.77;5.30;;;;;;;4.34;100.00;97499.31;1031892;28;20018;-57
2021/03/30 02:08:31;;;;;;;9.90;5.88;;;;;;;4.32;100.00;97490.66;1031993;28;20128;-55
2021/03/30 02:09:14;;;;;;;12.30;5.35;;;;;;;4.34;100.00;97491.41;1032080;28;20018;-56
2021/03/30 02:09:49;;;;;;;11.98;5.60;;;;;;;4.32;100.00;97493.31;1034646;28;20038;-57
2021/03/30 02:10:31;;;;;;;9.70;5.20;;;;;;;4.24;100.00;97478.00;1039816;28;20109;-56
2021/03/30 02:11:02;;;;;;;10.75;5.15;;;;;;;4.32;100.00;97490.66;1040177;28;20024;-57
2021/03/30 02:11:42;;;;;;;9.20;5.47;;;;;;;4.33;100.00;97495.81;1036044;28;20018;-58
2021/03/30 02:12:14;;;;;;;10.05;5.30;;;;;;;4.36;100.00;97488.69;1040017;28;20104;-56
2021/03/30 02:12:45;;;;;;;10.48;4.97;;;;;;;4.36;100.00;97500.03;1036047;28;20025;-57
2021/03/30 02:13:58;;;;;;;11.27;5.38;;;;;;;4.36;100.00;97483.44;1036025;28;20028;-57
2021/03/30 02:14:29;;;;;;;13.10;5.75;;;;;;;4.38;100.00;97486.78;1035933;28;20340;-56
2021/03/30 02:15:00;;;;;;;8.93;4.68;;;;;;;4.37;100.00;97491.19;1040098;28;20025;-57
2021/03/30 02:15:31;;;;;;;11.70;5.97;;;;;;;4.39;100.00;97488.47;1040165;28;20028;-58
2021/03/30 02:16:03;;;;;;;8.77;5.28;;;;;;;4.36;100.00;97493.94;1036106;28;20450;-57
2021/03/30 02:16:38;;;;;;;9.07;5.18;;;;;;;4.37;100.00;97490.34;1036383;28;20122;-57
2021/03/30 02:17:16;;;;;;;9.40;5.70;;;;;;;4.38;100.00;97489.44;1034035;28;20109;-58
2021/03/30 02:18:07;;;;;;;9.95;5.45;;;;;;;4.39;100.00;97493.72;1035951;28;20073;-57
2021/03/30 02:18:48;;;;;;;9.38;5.63;;;;;;;4.38;100.00;97492.06;1036422;28;20018;-55
2021/03/30 02:19:23;;;;;;;12.98;5.47;;;;;;;4.34;100.00;97494.03;1044762;28;20394;-56
2021/03/30 02:20:07;;;;;;;10.90;5.32;;;;;;;4.36;100.00;97494.78;1048350;28;20012;-57
2021/03/30 02:20:40;;;;;;;11.55;5.10;;;;;;;4.34;100.00;97494.88;1039545;28;20072;-55
2021/03/30 02:21:13;;;;;;;10.60;5.68;;;;;;;4.34;100.00;97497.50;1035671;28;20109;-56
2021/03/30 02:21:46;;;;;;;9.60;5.38;;;;;;;4.36;100.00;97496.56;1035930;28;20082;-57
2021/03/30 02:22:22;;;;;;;9.90;4.97;;;;;;;4.34;100.00;97492.25;1036029;28;20112;-55
2021/03/30 02:22:56;;;;;;;9.77;5.53;;;;;;;4.33;100.00;97494.97;1033371;28;20088;-56
2021/03/30 02:23:27;;;;;;;9.57;5.47;;;;;;;4.33;100.00;97501.06;1031992;28;20103;-56
2021/03/30 02:23:57;;;;;;;10.93;5.40;;;;;;;4.27;100.00;97487.50;1039944;28;20067;-56
2021/03/30 02:24:29;;;;;;;9.73;5.93;;;;;;;4.32;100.00;97498.56;1032182;28;20010;-56
2021/03/30 02:25:01;;;;;;;10.60;5.50;;;;;;;4.28;100.00;97487.38;1031953;28;20006;-56
2021/03/30 02:25:32;;;;;;;9.93;5.47;;;;;;;4.30;100.00;97500.41;1032025;28;20010;-57
2021/03/30 02:26:04;;;;;;;10.63;5.95;;;;;;;4.28;100.00;97492.63;1040264;28;20081;-58
2021/03/30 02:26:34;;;;;;;11.23;6.13;;;;;;;4.27;100.00;97495.38;1032117;28;20494;-55
2021/03/30 02:27:06;;;;;;;10.25;5.78;;;;;;;4.21;100.00;97488.69;1036214;28;20014;-58
2021/03/30 02:27:40;;;;;;;9.20;5.57;;;;;;;4.26;100.00;97497.13;1040298;28;20317;-57
2021/03/30 02:28:12;;;;;;;11.52;5.90;;;;;;;4.33;100.00;97494.97;1040261;28;20020;-56
2021/03/30 02:29:25;;;;;;;10.80;5.72;;;;;;;4.28;100.00;97492.63;1036023;28;20014;-56
2021/03/30 02:29:56;;;;;;;13.80;5.68;;;;;;;4.27;100.00;97496.22;1040289;28;20136;-56
2021/03/30 02:30:27;;;;;;;12.55;5.68;;;;;;;4.28;100.00;97486.53;1036076;28;20071;-55
2021/03/30 02:30:58;;;;;;;9.82;5.40;;;;;;;4.27;100.00;97496.22;1031939;28;20547;-56
2021/03/30 02:31:30;;;;;;;9.05;5.22;;;;;;;4.27;100.00;97484.88;1032128;28;20025;-56
2021/03/30 02:32:03;;;;;;;9.10;5.25;;;;;;;4.28;100.00;97492.63;1036849;28;20013;-56
2021/03/30 02:32:34;;;;;;;11.60;5.55;;;;;;;4.21;100.00;97478.19;1037217;28;20014;-57
2021/03/30 02:33:05;;;;;;;10.88;5.78;;;;;;;4.26;100.00;97493.69;1036956;28;20010;-56
2021/03/30 02:33:36;;;;;;;13.63;5.80;;;;;;;4.21;100.00;97480.81;1041029;28;20021;-56
2021/03/30 02:34:07;;;;;;;10.90;5.03;;;;;;;4.27;100.00;97492.75;1037232;28;20069;-57
2021/03/30 02:34:37;;;;;;;11.73;5.90;;;;;;;4.24;100.00;97491.16;1033217;28;20105;-56
2021/03/30 02:35:09;;;;;;;8.95;5.55;;;;;;;4.24;100.00;97487.69;1036850;28;20017;-56
2021/03/30 02:35:40;;;;;;;8.80;5.32;;;;;;;4.23;100.00;97486.84;1037169;28;20014;-56